Time;durP1;ratioP1;P1;durP2;ratioP2;P2;SDS_P1;SDS_P2;PMS_P1;PMS_P2;Temp;Humidity;BMP_temperature;BMP_pressure;BME280_temperature;BME280_humidity;BME280_pressure;Samples;Min_cycle;Max_cycle;Signal;HPM_P1;HPM_P2
2023/08/12 00:01:41;;;;;;;24.20;19.60;;;;;;;;;;2615246;39;20875;-72
2023/08/12 00:07:11;;;;;;;21.60;18.20;;;;;;;;;;2614432;54;20411;-71
2023/08/12 00:12:41;;;;;;;25.47;18.63;;;;;;;;;;2614957;54;20406;-72
2023/08/12 00:18:10;;;;;;;23.70;18.80;;;;;;;;;;2614675;54;20354;-73
2023/08/12 00:23:41;;;;;;;20.83;17.00;;;;;;;;;;2614625;54;20414;-73
2023/08/12 00:29:11;;;;;;;24.20;17.33;;;;;;;;;;2614605;54;20386;-73
2023/08/12 00:34:40;;;;;;;26.60;19.07;;;;;;;;;;2614672;54;20366;-73
2023/08/12 00:40:10;;;;;;;26.80;19.90;;;;;;;;;;2614683;54;20379;-73
2023/08/12 00:45:39;;;;;;;27.37;20.37;;;;;;;;;;2614876;54;20410;-73
2023/08/12 00:51:09;;;;;;;32.30;20.10;;;;;;;;;;2614667;54;20889;-71
2023/08/12 00:56:39;;;;;;;23.77;20.83;;;;;;;;;;2614520;54;20909;-71
2023/08/12 01:02:09;;;;;;;24.50;21.83;;;;;;;;;;2614452;54;20363;-72
2023/08/12 01:07:38;;;;;;;32.23;25.20;;;;;;;;;;2614796;54;20518;-72
2023/08/12 01:19:24;;;;;;;40.70;25.87;;;;;;;;;;2614368;54;20354;-71
2023/08/12 01:24:53;;;;;;;40.63;30.80;;;;;;;;;;2614880;54;20362;-71
2023/08/12 01:30:23;;;;;;;45.90;31.60;;;;;;;;;;2615415;39;20743;-75
2023/08/12 01:41:49;;;;;;;52.23;32.50;;;;;;;;;;2614766;54;20355;-75
2023/08/12 01:47:18;;;;;;;42.43;32.43;;;;;;;;;;2614834;54;20371;-74
2023/08/12 01:52:48;;;;;;;44.27;30.80;;;;;;;;;;2614700;54;20351;-75
2023/08/12 01:58:17;;;;;;;45.83;31.40;;;;;;;;;;2614902;54;20447;-72
2023/08/12 02:03:47;;;;;;;42.77;32.63;;;;;;;;;;2614783;54;20371;-74
2023/08/12 02:09:16;;;;;;;43.10;30.87;;;;;;;;;;2614327;54;20375;-73
2023/08/12 02:18:21;;;;;;;40.43;28.13;;;;;;;;;;2613855;54;20442;-72
2023/08/12 02:23:50;;;;;;;37.60;29.73;;;;;;;;;;2613698;54;20535;-72
2023/08/12 02:29:20;;;;;;;39.90;31.60;;;;;;;;;;2614294;54;20366;-72
2023/08/12 02:34:49;;;;;;;35.10;28.27;;;;;;;;;;2613930;54;20350;-73
2023/08/12 02:40:19;;;;;;;35.27;28.50;;;;;;;;;;2612771;54;20359;-74
2023/08/12 02:45:48;;;;;;;43.03;28.03;;;;;;;;;;2614497;54;20450;-73
2023/08/12 02:51:18;;;;;;;38.87;30.00;;;;;;;;;;2614135;54;20391;-73
2023/08/12 02:56:48;;;;;;;43.47;29.70;;;;;;;;;;2614302;54;20491;-73
2023/08/12 03:02:18;;;;;;;39.97;31.40;;;;;;;;;;2614310;54;20467;-73
2023/08/12 03:07:47;;;;;;;35.87;28.53;;;;;;;;;;2615100;39;20748;-75
2023/08/12 03:13:17;;;;;;;43.10;31.40;;;;;;;;;;2614722;54;20383;-75
2023/08/12 03:18:47;;;;;;;41.80;30.50;;;;;;;;;;2614082;54;20467;-75
2023/08/12 03:24:16;;;;;;;41.07;29.87;;;;;;;;;;2614287;54;20455;-74
2023/08/12 03:29:46;;;;;;;37.73;28.97;;;;;;;;;;2614410;54;20426;-74
2023/08/12 03:35:15;;;;;;;38.60;29.03;;;;;;;;;;2614629;54;20359;-74
2023/08/12 03:40:46;;;;;;;36.77;27.47;;;;;;;;;;2614009;54;20390;-74
2023/08/12 03:46:16;;;;;;;34.43;26.10;;;;;;;;;;2615014;54;20367;-74
2023/08/12 03:51:46;;;;;;;35.60;25.83;;;;;;;;;;2615374;39;20917;-73
2023/08/12 03:57:15;;;;;;;38.43;26.00;;;;;;;;;;2614826;54;20406;-74
2023/08/12 04:02:46;;;;;;;41.60;26.17;;;;;;;;;;2614842;54;20450;-74
2023/08/12 04:08:15;;;;;;;30.47;23.63;;;;;;;;;;2614351;54;20407;-73
2023/08/12 04:13:45;;;;;;;31.23;25.50;;;;;;;;;;2614794;54;20511;-74
2023/08/12 04:22:52;;;;;;;29.67;23.00;;;;;;;;;;2615106;54;20419;-70
2023/08/12 04:28:22;;;;;;;33.03;23.30;;;;;;;;;;2614838;54;20382;-70
2023/08/12 04:33:52;;;;;;;23.10;20.80;;;;;;;;;;2614685;54;20917;-71
2023/08/12 04:39:22;;;;;;;21.43;18.80;;;;;;;;;;2614676;54;20433;-69
2023/08/12 04:44:52;;;;;;;23.93;21.30;;;;;;;;;;2615013;46;20403;-71
2023/08/12 04:50:22;;;;;;;21.83;18.70;;;;;;;;;;2615004;54;20945;-70
2023/08/12 04:55:51;;;;;;;26.50;20.17;;;;;;;;;;2614858;54;20359;-69
2023/08/12 05:01:21;;;;;;;21.40;19.20;;;;;;;;;;2614264;54;20418;-71
2023/08/12 05:06:51;;;;;;;24.30;21.20;;;;;;;;;;2614213;54;20388;-72
2023/08/12 05:12:20;;;;;;;24.20;20.60;;;;;;;;;;2614586;54;20355;-72
2023/08/12 05:17:50;;;;;;;22.73;19.23;;;;;;;;;;2614151;54;20410;-74
2023/08/12 05:23:21;;;;;;;19.00;16.77;;;;;;;;;;2614535;46;20410;-73
2023/08/12 05:28:50;;;;;;;17.63;15.40;;;;;;;;;;2614866;54;20436;-74
2023/08/12 05:34:20;;;;;;;17.50;15.70;;;;;;;;;;2614886;54;20414;-75
2023/08/12 05:39:50;;;;;;;19.23;14.90;;;;;;;;;;2614976;54;21009;-73
2023/08/12 05:45:20;;;;;;;17.47;13.80;;;;;;;;;;2615138;54;20391;-70
2023/08/12 05:50:49;;;;;;;18.47;14.47;;;;;;;;;;2615339;54;20351;-71
2023/08/12 05:56:19;;;;;;;16.40;14.70;;;;;;;;;;2614667;54;20379;-70
2023/08/12 06:01:48;;;;;;;18.27;14.87;;;;;;;;;;2615102;54;20371;-70
2023/08/12 06:07:18;;;;;;;17.37;14.57;;;;;;;;;;2614861;54;20896;-73
2023/08/12 06:12:48;;;;;;;15.37;13.87;;;;;;;;;;2614602;54;20374;-74
2023/08/12 06:18:17;;;;;;;14.17;12.70;;;;;;;;;;2614367;54;20383;-74
2023/08/12 06:23:47;;;;;;;16.80;13.63;;;;;;;;;;2614187;54;20374;-73
2023/08/12 06:29:17;;;;;;;13.10;11.70;;;;;;;;;;2614959;54;20381;-74
2023/08/12 06:34:46;;;;;;;13.23;11.57;;;;;;;;;;2613282;54;20872;-74
2023/08/12 06:40:17;;;;;;;12.03;9.57;;;;;;;;;;2614441;54;20410;-71
2023/08/12 06:45:46;;;;;;;12.00;10.47;;;;;;;;;;2614170;54;20363;-72
2023/08/12 06:51:16;;;;;;;15.07;11.17;;;;;;;;;;2614720;54;20917;-72
2023/08/12 06:56:46;;;;;;;12.80;10.20;;;;;;;;;;2614466;54;20375;-72
2023/08/12 07:02:15;;;;;;;14.50;10.20;;;;;;;;;;2614490;54;20390;-72
2023/08/12 07:07:45;;;;;;;9.70;8.43;;;;;;;;;;2615089;54;20400;-71
2023/08/12 07:13:14;;;;;;;9.33;7.80;;;;;;;;;;2613845;54;20398;-70
2023/08/12 07:24:52;;;;;;;9.67;8.30;;;;;;;;;;2615198;54;20560;-74
2023/08/12 07:30:22;;;;;;;8.10;7.23;;;;;;;;;;2615231;54;20530;-72
2023/08/12 07:35:51;;;;;;;9.17;6.83;;;;;;;;;;2615513;54;20398;-75
2023/08/12 07:41:21;;;;;;;9.37;6.30;;;;;;;;;;2616067;54;20489;-73
2023/08/12 07:46:50;;;;;;;7.77;6.40;;;;;;;;;;2618490;39;21216;-74
2023/08/12 07:52:20;;;;;;;11.73;5.80;;;;;;;;;;2616041;54;21159;-73
2023/08/12 07:57:50;;;;;;;7.00;5.70;;;;;;;;;;2616484;54;20418;-74
2023/08/12 08:03:20;;;;;;;7.10;6.40;;;;;;;;;;2617365;54;20363;-73
2023/08/12 08:08:50;;;;;;;6.23;5.57;;;;;;;;;;2616614;46;20435;-73
2023/08/12 08:14:19;;;;;;;5.97;5.40;;;;;;;;;;2616086;54;20399;-73
2023/08/12 08:23:26;;;;;;;6.60;5.77;;;;;;;;;;2614182;54;20477;-75
2023/08/12 08:28:56;;;;;;;7.47;6.00;;;;;;;;;;2615135;39;20542;-72
2023/08/12 08:34:25;;;;;;;7.77;7.07;;;;;;;;;;2615027;54;20395;-70
2023/08/12 08:39:55;;;;;;;7.83;7.10;;;;;;;;;;2614419;54;20367;-71
2023/08/12 08:45:25;;;;;;;8.50;7.70;;;;;;;;;;2614703;54;20379;-72
2023/08/12 08:50:55;;;;;;;8.17;7.40;;;;;;;;;;2615267;54;20427;-71
2023/08/12 08:56:25;;;;;;;9.27;8.07;;;;;;;;;;2614935;39;20720;-69
2023/08/12 09:01:55;;;;;;;7.87;7.17;;;;;;;;;;2615295;54;20383;-71
2023/08/12 09:07:25;;;;;;;8.20;6.73;;;;;;;;;;2614200;54;20402;-72
2023/08/12 09:12:56;;;;;;;8.27;7.40;;;;;;;;;;2615024;54;20399;-71
2023/08/12 09:18:26;;;;;;;6.53;5.93;;;;;;;;;;2615457;54;20411;-72
2023/08/12 09:23:56;;;;;;;6.40;5.90;;;;;;;;;;2615841;54;20547;-72
2023/08/12 09:29:33;;;;;;;7.20;5.80;;;;;;;;;;2616741;54;20508;-71
2023/08/12 09:35:04;;;;;;;5.27;4.77;;;;;;;;;;2616845;54;20390;-71
2023/08/12 09:40:34;;;;;;;5.43;4.57;;;;;;;;;;2614987;54;20399;-75
2023/08/12 09:46:04;;;;;;;6.10;3.93;;;;;;;;;;2615111;54;20399;-76
2023/08/12 09:51:37;;;;;;;4.80;3.97;;;;;;;;;;2615094;46;20514;-76
2023/08/12 09:57:08;;;;;;;5.90;4.10;;;;;;;;;;2614841;54;21041;-75
2023/08/12 10:02:39;;;;;;;8.10;4.37;;;;;;;;;;2614810;54;20403;-75
2023/08/12 10:08:09;;;;;;;4.47;3.90;;;;;;;;;;2614827;54;20390;-75
2023/08/12 10:13:40;;;;;;;4.63;3.27;;;;;;;;;;2614711;54;20502;-76
2023/08/12 10:19:12;;;;;;;3.87;3.57;;;;;;;;;;2614805;54;20423;-74
2023/08/12 10:28:14;;;;;;;2.93;2.37;;;;;;;;;;2614640;54;20407;-75
2023/08/12 10:33:44;;;;;;;4.10;2.93;;;;;;;;;;2614862;54;20402;-74
2023/08/12 10:39:14;;;;;;;6.10;4.37;;;;;;;;;;2614914;54;20439;-76
2023/08/12 10:44:51;;;;;;;6.70;3.43;;;;;;;;;;2615519;39;20731;-75
2023/08/12 10:50:21;;;;;;;5.07;3.00;;;;;;;;;;2614960;54;20391;-72
2023/08/12 10:55:55;;;;;;;5.50;3.73;;;;;;;;;;2614417;54;20386;-70
2023/08/12 11:01:24;;;;;;;4.63;2.70;;;;;;;;;;2614375;54;20407;-71
2023/08/12 11:06:55;;;;;;;4.20;2.17;;;;;;;;;;2614489;54;20411;-71
2023/08/12 11:12:30;;;;;;;2.57;2.00;;;;;;;;;;2614370;54;20375;-70
2023/08/12 11:18:00;;;;;;;2.40;1.60;;;;;;;;;;2614323;54;20410;-72
2023/08/12 11:23:29;;;;;;;2.33;1.50;;;;;;;;;;2614888;54;20391;-70
2023/08/12 11:28:59;;;;;;;2.00;1.50;;;;;;;;;;2613941;54;20390;-71
2023/08/12 11:34:29;;;;;;;2.57;1.80;;;;;;;;;;2614178;54;20403;-72
2023/08/12 11:39:59;;;;;;;2.47;1.20;;;;;;;;;;2613950;54;20484;-71
2023/08/12 11:45:28;;;;;;;2.37;1.70;;;;;;;;;;2610224;54;20902;-74
2023/08/12 11:50:58;;;;;;;2.90;1.80;;;;;;;;;;2610582;54;20395;-72
2023/08/12 11:56:27;;;;;;;2.23;1.47;;;;;;;;;;2611250;54;20382;-72
2023/08/12 12:01:57;;;;;;;1.70;1.10;;;;;;;;;;2612577;39;20728;-72
2023/08/12 12:07:27;;;;;;;2.70;1.37;;;;;;;;;;2612728;39;20776;-73
2023/08/12 12:12:57;;;;;;;4.13;1.10;;;;;;;;;;2613619;54;20949;-70
2023/08/12 12:18:28;;;;;;;2.77;1.23;;;;;;;;;;2615270;54;20507;-71
2023/08/12 12:30:08;;;;;;;3.90;1.70;;;;;;;;;;2615307;54;20415;-72
2023/08/12 12:35:37;;;;;;;2.50;2.07;;;;;;;;;;2614648;54;20386;-74
2023/08/12 12:41:07;;;;;;;3.30;2.60;;;;;;;;;;2611299;54;20406;-72
2023/08/12 12:46:37;;;;;;;4.60;3.63;;;;;;;;;;2613206;54;20386;-72
2023/08/12 12:52:06;;;;;;;4.73;3.70;;;;;;;;;;2612223;54;20459;-71
2023/08/12 12:57:36;;;;;;;4.37;3.93;;;;;;;;;;2611056;54;20418;-71
2023/08/12 13:03:05;;;;;;;7.13;5.10;;;;;;;;;;2611157;54;20873;-73
2023/08/12 13:08:35;;;;;;;7.10;5.57;;;;;;;;;;2611555;54;20387;-74
2023/08/12 13:14:05;;;;;;;7.43;6.73;;;;;;;;;;2611020;47;20438;-74
2023/08/12 13:19:34;;;;;;;8.73;7.07;;;;;;;;;;2611087;54;20387;-75
2023/08/12 13:28:45;;;;;;;10.30;7.00;;;;;;;;;;2610523;54;20411;-73
2023/08/12 13:34:15;;;;;;;8.53;7.63;;;;;;;;;;2611275;54;20346;-75
2023/08/12 13:39:45;;;;;;;9.00;8.20;;;;;;;;;;2613904;46;20393;-73
2023/08/12 13:45:15;;;;;;;11.33;7.90;;;;;;;;;;2613917;54;20402;-74
2023/08/12 13:50:44;;;;;;;10.50;9.43;;;;;;;;;;2612519;54;20475;-75
2023/08/12 13:56:14;;;;;;;13.10;11.70;;;;;;;;;;2612119;54;20485;-75
2023/08/12 14:01:44;;;;;;;12.90;11.60;;;;;;;;;;2611307;39;20826;-76
2023/08/12 14:07:13;;;;;;;10.93;9.70;;;;;;;;;;2611294;54;20407;-76
2023/08/12 14:12:44;;;;;;;10.83;9.50;;;;;;;;;;2610737;54;20395;-75
2023/08/12 14:18:14;;;;;;;9.53;8.53;;;;;;;;;;2611613;54;20379;-74
2023/08/12 14:23:44;;;;;;;7.37;6.63;;;;;;;;;;2611713;54;20502;-71
2023/08/12 14:29:14;;;;;;;8.80;7.97;;;;;;;;;;2611177;54;20893;-71
2023/08/12 14:34:46;;;;;;;6.27;5.67;;;;;;;;;;2611035;54;20460;-73
2023/08/12 14:40:15;;;;;;;6.60;6.00;;;;;;;;;;2611387;54;20379;-74
2023/08/12 14:45:48;;;;;;;6.83;6.10;;;;;;;;;;2611328;39;20517;-71
2023/08/12 14:51:17;;;;;;;7.20;6.60;;;;;;;;;;2611032;54;20475;-72
2023/08/12 14:56:47;;;;;;;10.07;8.90;;;;;;;;;;2612606;54;20394;-71
2023/08/12 15:02:22;;;;;;;10.00;9.10;;;;;;;;;;2612490;54;20514;-72
2023/08/12 15:07:51;;;;;;;9.40;8.50;;;;;;;;;;2612707;54;20408;-72
2023/08/12 15:13:21;;;;;;;8.67;7.87;;;;;;;;;;2611523;54;20434;-73
2023/08/12 15:18:51;;;;;;;9.50;8.13;;;;;;;;;;2611912;46;20511;-74
2023/08/12 15:24:20;;;;;;;6.90;6.30;;;;;;;;;;2611776;54;20395;-74
2023/08/12 15:29:50;;;;;;;5.93;5.27;;;;;;;;;;2611882;54;20402;-74
2023/08/12 15:35:20;;;;;;;5.57;5.07;;;;;;;;;;2610620;54;20370;-75
2023/08/12 15:40:50;;;;;;;6.47;5.60;;;;;;;;;;2611734;54;20374;-74
2023/08/12 15:46:19;;;;;;;4.90;4.50;;;;;;;;;;2611729;54;20395;-74
2023/08/12 15:51:49;;;;;;;7.43;5.00;;;;;;;;;;2611770;54;20462;-74
2023/08/12 15:57:19;;;;;;;5.07;4.33;;;;;;;;;;2614169;54;20359;-74
2023/08/12 16:02:49;;;;;;;4.80;4.30;;;;;;;;;;2612602;54;20435;-74
2023/08/12 16:08:19;;;;;;;5.80;3.93;;;;;;;;;;2611424;54;20355;-74
2023/08/12 16:13:49;;;;;;;9.93;4.20;;;;;;;;;;2612513;54;20411;-75
2023/08/12 16:19:18;;;;;;;5.10;4.60;;;;;;;;;;2612687;54;20363;-75
2023/08/12 16:30:55;;;;;;;4.50;4.10;;;;;;;;;;2612388;39;20740;-73
2023/08/12 16:36:25;;;;;;;10.20;5.40;;;;;;;;;;2612554;54;20406;-75
2023/08/12 16:41:54;;;;;;;7.60;5.23;;;;;;;;;;2612297;54;20395;-75
2023/08/12 16:47:25;;;;;;;5.83;4.83;;;;;;;;;;2612121;54;20418;-75
2023/08/12 16:52:55;;;;;;;6.80;4.87;;;;;;;;;;2613359;39;20806;-75
2023/08/12 16:58:24;;;;;;;5.47;5.00;;;;;;;;;;2612493;54;20355;-75
2023/08/12 17:03:55;;;;;;;8.33;6.13;;;;;;;;;;2612522;54;20387;-75
2023/08/12 17:09:25;;;;;;;7.00;6.37;;;;;;;;;;2615854;39;20698;-75
2023/08/12 17:14:55;;;;;;;7.97;5.73;;;;;;;;;;2612812;39;20765;-74
2023/08/12 17:20:25;;;;;;;6.10;5.50;;;;;;;;;;2612445;54;20383;-75
2023/08/12 17:29:35;;;;;;;6.27;5.70;;;;;;;;;;2612747;54;20936;-75
2023/08/12 17:35:05;;;;;;;6.33;5.83;;;;;;;;;;2612397;46;20414;-75
2023/08/12 17:40:34;;;;;;;6.53;5.93;;;;;;;;;;2613109;31;21018;-75
2023/08/12 17:46:04;;;;;;;7.20;5.57;;;;;;;;;;2612452;54;20390;-75
2023/08/12 17:51:34;;;;;;;8.50;6.37;;;;;;;;;;2614222;54;20427;-73
2023/08/12 17:57:03;;;;;;;8.70;6.13;;;;;;;;;;2611460;54;20410;-71
2023/08/12 18:02:33;;;;;;;8.27;5.97;;;;;;;;;;2611641;39;20967;-71
2023/08/12 18:08:04;;;;;;;6.60;5.83;;;;;;;;;;2612744;54;20383;-72
2023/08/12 18:13:33;;;;;;;5.97;5.47;;;;;;;;;;2611423;46;20415;-71
2023/08/12 18:19:03;;;;;;;6.20;5.30;;;;;;;;;;2611660;54;20383;-71
2023/08/12 18:24:33;;;;;;;5.90;5.40;;;;;;;;;;2611761;54;20378;-73
2023/08/12 18:30:03;;;;;;;6.50;5.80;;;;;;;;;;2611454;54;20347;-71
2023/08/12 18:35:33;;;;;;;10.33;5.20;;;;;;;;;;2611501;54;20375;-73
2023/08/12 18:41:03;;;;;;;6.43;5.50;;;;;;;;;;2610814;54;20388;-76
2023/08/12 18:46:33;;;;;;;7.50;5.67;;;;;;;;;;2610559;54;20370;-75
2023/08/12 18:52:02;;;;;;;9.90;4.97;;;;;;;;;;2611060;54;20984;-75
2023/08/12 18:57:32;;;;;;;13.30;7.40;;;;;;;;;;2610280;54;20379;-77
2023/08/12 19:03:01;;;;;;;7.80;5.60;;;;;;;;;;2612505;54;20398;-76
2023/08/12 19:08:31;;;;;;;9.83;5.37;;;;;;;;;;2612841;54;20415;-76
2023/08/12 19:14:01;;;;;;;11.20;6.20;;;;;;;;;;2614568;54;20407;-76
2023/08/12 19:19:30;;;;;;;8.80;6.17;;;;;;;;;;2613152;54;20948;-76
2023/08/12 19:25:00;;;;;;;10.70;7.40;;;;;;;;;;2613722;46;20418;-75
2023/08/12 19:30:30;;;;;;;10.10;6.20;;;;;;;;;;2613730;54;20382;-76
2023/08/12 19:36:00;;;;;;;8.70;6.30;;;;;;;;;;2613101;54;20937;-77
2023/08/12 19:38:45;;;;;;;10.50;7.20;;;;;;;;;;2613835;54;20506;-76
2023/08/12 19:41:11;;;;;;;7.60;5.77;;;;;;;;;;2615058;54;20430;-75
2023/08/12 19:46:40;;;;;;;8.40;6.83;;;;;;;;;;2613391;54;20415;-75
2023/08/12 19:52:10;;;;;;;8.50;6.10;;;;;;;;;;2613431;54;20550;-76
2023/08/12 19:57:40;;;;;;;7.60;6.47;;;;;;;;;;2613602;54;21274;-75
2023/08/12 20:03:09;;;;;;;11.60;6.27;;;;;;;;;;2613597;39;20790;-75
2023/08/12 20:08:39;;;;;;;8.30;7.43;;;;;;;;;;2613898;54;20390;-75
2023/08/12 20:14:09;;;;;;;10.70;6.80;;;;;;;;;;2611335;54;21017;-75
2023/08/12 20:19:39;;;;;;;10.27;9.17;;;;;;;;;;2611341;54;20431;-74
2023/08/12 20:25:09;;;;;;;13.63;9.47;;;;;;;;;;2611432;54;20392;-74
2023/08/12 20:30:39;;;;;;;13.33;7.53;;;;;;;;;;2611568;54;20343;-75
2023/08/12 20:36:08;;;;;;;8.53;7.60;;;;;;;;;;2612065;31;20843;-74
2023/08/12 20:41:38;;;;;;;8.33;6.83;;;;;;;;;;2611430;54;20459;-74
2023/08/12 20:47:08;;;;;;;12.37;7.90;;;;;;;;;;2611378;54;20351;-74
2023/08/12 20:52:37;;;;;;;11.30;6.93;;;;;;;;;;2611482;54;20471;-74
2023/08/12 20:58:07;;;;;;;8.20;7.50;;;;;;;;;;2612097;54;20501;-76
2023/08/12 21:03:37;;;;;;;10.07;8.90;;;;;;;;;;2611320;54;20414;-75
2023/08/12 21:09:06;;;;;;;9.70;7.60;;;;;;;;;;2611173;54;20451;-75
2023/08/12 21:14:36;;;;;;;8.23;5.73;;;;;;;;;;2611163;54;20367;-74
2023/08/12 21:20:07;;;;;;;12.63;6.27;;;;;;;;;;2614752;54;20390;-75
2023/08/12 21:31:44;;;;;;;8.00;6.17;;;;;;;;;;2611061;54;20363;-75
2023/08/12 21:37:15;;;;;;;7.90;5.50;;;;;;;;;;2614732;54;20390;-75
2023/08/12 21:42:45;;;;;;;6.90;5.10;;;;;;;;;;2614834;54;21042;-76
2023/08/12 21:48:15;;;;;;;7.43;6.30;;;;;;;;;;2611224;54;20491;-76
2023/08/12 21:53:46;;;;;;;6.77;6.07;;;;;;;;;;2611591;54;20379;-75
2023/08/12 21:59:16;;;;;;;7.93;5.37;;;;;;;;;;2611372;54;20540;-75
2023/08/12 22:04:45;;;;;;;7.97;6.30;;;;;;;;;;2611231;54;20378;-75
2023/08/12 22:10:15;;;;;;;9.60;5.93;;;;;;;;;;2611371;54;20378;-74
2023/08/12 22:15:45;;;;;;;8.23;7.27;;;;;;;;;;2611079;54;20363;-75
2023/08/12 22:21:14;;;;;;;8.37;6.47;;;;;;;;;;2611016;54;21644;-74
2023/08/12 22:30:22;;;;;;;8.33;6.40;;;;;;;;;;2613344;54;20531;-74
2023/08/12 22:35:51;;;;;;;7.50;6.03;;;;;;;;;;2612744;46;20410;-74
2023/08/12 22:41:21;;;;;;;13.43;6.93;;;;;;;;;;2612891;54;20503;-75
2023/08/12 22:46:50;;;;;;;8.03;5.90;;;;;;;;;;2612556;54;20387;-75
2023/08/12 22:52:20;;;;;;;7.70;6.13;;;;;;;;;;2612849;54;20414;-75
2023/08/12 22:57:50;;;;;;;11.53;6.97;;;;;;;;;;2612946;54;20394;-75
2023/08/12 23:03:19;;;;;;;13.97;7.07;;;;;;;;;;2613133;54;20391;-76
2023/08/12 23:08:49;;;;;;;10.33;6.43;;;;;;;;;;2612664;54;20431;-75
2023/08/12 23:14:19;;;;;;;7.10;6.20;;;;;;;;;;2613746;54;20470;-76
2023/08/12 23:19:49;;;;;;;8.97;6.63;;;;;;;;;;2614526;54;20439;-76
2023/08/12 23:25:18;;;;;;;8.37;5.97;;;;;;;;;;2612663;54;20383;-75
2023/08/12 23:30:48;;;;;;;8.57;7.07;;;;;;;;;;2612830;54;20402;-76
2023/08/12 23:36:18;;;;;;;8.10;5.23;;;;;;;;;;2612421;54;20394;-76
2023/08/12 23:41:47;;;;;;;6.53;5.30;;;;;;;;;;2615352;54;20374;-75
2023/08/12 23:47:17;;;;;;;10.50;5.40;;;;;;;;;;2614360;54;20455;-73
2023/08/12 23:52:47;;;;;;;10.60;5.10;;;;;;;;;;2614812;54;20419;-73
2023/08/12 23:58:17;;;;;;;7.13;5.83;;;;;;;;;;2614622;54;20375;-73
